createdAt,value
2023-05-14T00:00:07.998Z,14.69
2023-05-14T00:03:01.513Z,14.68
2023-05-14T00:05:35.764Z,14.67
2023-05-14T00:08:10.254Z,14.65
2023-05-14T00:10:44.113Z,14.61
2023-05-14T00:13:17.918Z,14.53
2023-05-14T00:15:52.187Z,14.48
2023-05-14T00:18:25.684Z,14.46
2023-05-14T00:20:59.292Z,14.45
2023-05-14T00:23:32.900Z,14.43
2023-05-14T00:26:06.876Z,14.41
2023-05-14T00:28:40.503Z,14.37
2023-05-14T00:31:14.585Z,14.36
2023-05-14T00:33:47.977Z,14.36
2023-05-14T00:36:21.935Z,14.37
2023-05-14T00:38:55.526Z,14.38
2023-05-14T00:41:28.970Z,14.39
2023-05-14T00:44:02.866Z,14.42
2023-05-14T00:46:36.456Z,14.44
2023-05-14T00:49:10.241Z,14.43
2023-05-14T00:51:47.212Z,14.40
2023-05-14T00:54:21.786Z,14.37
2023-05-14T00:56:55.723Z,14.33
2023-05-14T00:59:29.416Z,14.30
2023-05-14T01:02:03.286Z,14.25
2023-05-14T01:04:38.166Z,14.21
2023-05-14T01:07:22.985Z,14.19
2023-05-14T01:10:01.942Z,14.15
2023-05-14T01:12:36.253Z,14.10
2023-05-14T01:15:14.001Z,14.04
2023-05-14T01:17:52.259Z,14.01
2023-05-14T01:20:27.399Z,13.98
2023-05-14T01:23:01.265Z,13.96
2023-05-14T01:25:35.605Z,13.94
2023-05-14T01:28:15.176Z,13.95
2023-05-14T01:30:59.529Z,13.97
2023-05-14T01:33:35.463Z,13.96
2023-05-14T01:36:10.026Z,13.96
2023-05-14T01:38:46.441Z,13.96
2023-05-14T01:41:22.981Z,13.97
2023-05-14T01:43:56.709Z,13.96
2023-05-14T01:46:32.726Z,13.95
2023-05-14T01:49:06.570Z,13.91
2023-05-14T01:51:40.368Z,13.88
2023-05-14T01:54:14.227Z,13.83
2023-05-14T01:56:48.145Z,13.77
2023-05-14T01:59:21.646Z,13.71
2023-05-14T02:01:55.057Z,13.67
2023-05-14T02:04:28.533Z,13.63
2023-05-14T02:07:02.363Z,13.58
2023-05-14T02:09:36.439Z,13.54
2023-05-14T02:12:11.566Z,13.49
2023-05-14T02:14:45.400Z,13.46
2023-05-14T02:17:18.856Z,13.45
2023-05-14T02:19:52.190Z,13.44
2023-05-14T02:22:26.052Z,13.43
2023-05-14T02:24:59.517Z,13.45
2023-05-14T02:27:33.519Z,13.45
2023-05-14T02:30:07.963Z,13.43
2023-05-14T02:32:41.468Z,13.43
2023-05-14T02:35:15.332Z,13.40
2023-05-14T02:37:49.448Z,13.38
2023-05-14T02:40:23.560Z,13.36
2023-05-14T02:42:57.716Z,13.34
2023-05-14T02:45:31.132Z,13.31
2023-05-14T02:48:05.572Z,13.29
2023-05-14T02:50:39.490Z,13.25
2023-05-14T02:53:12.941Z,13.21
2023-05-14T02:55:46.438Z,13.20
2023-05-14T02:58:19.695Z,13.20
2023-05-14T03:01:01.660Z,13.20
2023-05-14T03:03:37.365Z,13.23
2023-05-14T03:06:12.446Z,13.23
2023-05-14T03:08:46.293Z,13.19
2023-05-14T03:11:19.731Z,13.14
2023-05-14T03:13:53.268Z,13.13
2023-05-14T03:16:26.728Z,13.13
2023-05-14T03:19:00.318Z,13.13
2023-05-14T03:21:34.150Z,13.11
2023-05-14T03:24:08.325Z,13.09
2023-05-14T03:26:42.378Z,13.10
2023-05-14T03:29:18.621Z,13.10
2023-05-14T03:31:54.905Z,13.12
2023-05-14T03:34:28.448Z,13.14
2023-05-14T03:37:02.511Z,13.18
2023-05-14T03:39:36.738Z,13.25
2023-05-14T03:42:12.088Z,13.31
2023-05-14T03:44:45.962Z,13.34
2023-05-14T03:47:19.899Z,13.37
2023-05-14T03:49:53.476Z,13.40
2023-05-14T03:52:26.929Z,13.43
2023-05-14T03:55:00.693Z,13.46
2023-05-14T03:57:33.931Z,13.49
2023-05-14T04:00:10.477Z,13.54
2023-05-14T04:02:52.867Z,13.60
2023-05-14T04:05:26.899Z,13.68
2023-05-14T04:08:00.433Z,13.76
2023-05-14T04:10:34.905Z,13.84
2023-05-14T04:13:08.827Z,13.94
2023-05-14T04:15:45.489Z,14.07
2023-05-14T04:18:20.373Z,14.24
2023-05-14T04:20:56.374Z,14.37
2023-05-14T04:23:30.069Z,14.44
2023-05-14T04:26:04.024Z,14.48
2023-05-14T04:28:37.524Z,14.53
2023-05-14T04:31:11.258Z,14.60
2023-05-14T04:33:45.097Z,14.67
2023-05-14T04:36:19.034Z,14.74
2023-05-14T04:38:52.521Z,14.90
2023-05-14T04:41:26.611Z,15.04
2023-05-14T04:44:02.130Z,15.12
2023-05-14T04:46:35.525Z,15.18
2023-05-14T04:49:09.948Z,15.23
2023-05-14T04:51:43.939Z,15.29
2023-05-14T04:54:17.367Z,15.37
2023-05-14T04:56:51.065Z,15.46
2023-05-14T04:59:24.358Z,15.54
2023-05-14T05:01:57.968Z,15.56
2023-05-14T05:04:31.571Z,15.63
2023-05-14T05:07:06.052Z,15.73
2023-05-14T05:09:39.242Z,15.79
2023-05-14T05:12:13.056Z,15.91
2023-05-14T05:14:46.534Z,16.15
2023-05-14T05:17:20.656Z,16.48
2023-05-14T05:19:54.398Z,17.18
2023-05-14T05:22:28.142Z,18.40
2023-05-14T05:25:01.578Z,19.67
2023-05-14T05:27:36.065Z,20.92
2023-05-14T05:30:12.848Z,21.85
2023-05-14T05:32:46.548Z,21.98
2023-05-14T05:35:20.485Z,21.67
2023-05-14T05:37:54.393Z,21.36
2023-05-14T05:40:28.033Z,21.14
2023-05-14T05:43:01.844Z,21.21
2023-05-14T05:45:35.477Z,21.44
2023-05-14T05:48:09.747Z,21.83
2023-05-14T05:50:45.007Z,22.36
2023-05-14T05:53:18.792Z,22.56
2023-05-14T05:55:52.559Z,22.93
2023-05-14T05:58:26.574Z,23.78
2023-05-14T06:01:00.190Z,24.65
2023-05-14T06:03:34.280Z,25.45
2023-05-14T06:06:08.555Z,26.19
2023-05-14T06:08:42.550Z,26.48
2023-05-14T06:11:17.241Z,26.35
2023-05-14T06:13:50.865Z,26.15
2023-05-14T06:16:24.282Z,26.02
2023-05-14T06:18:58.116Z,25.71
2023-05-14T06:21:31.457Z,25.59
2023-05-14T06:24:05.021Z,25.82
2023-05-14T06:26:38.228Z,25.86
2023-05-14T06:29:12.084Z,26.04
2023-05-14T06:31:45.937Z,26.23
2023-05-14T06:34:19.683Z,26.04
2023-05-14T06:36:53.619Z,26.34
2023-05-14T06:39:26.997Z,26.84
2023-05-14T06:42:01.395Z,28.33
2023-05-14T06:44:37.481Z,29.73
2023-05-14T06:47:11.425Z,30.21
2023-05-14T06:49:45.155Z,30.76
2023-05-14T06:52:19.312Z,31.26
2023-05-14T06:54:53.132Z,31.86
2023-05-14T06:57:27.000Z,33.05
2023-05-14T07:00:02.689Z,33.98
2023-05-14T07:02:37.534Z,35.08
2023-05-14T07:05:12.372Z,35.37
2023-05-14T07:07:45.820Z,35.43
2023-05-14T07:10:20.141Z,35.25
2023-05-14T07:12:53.731Z,35.17
2023-05-14T07:15:27.111Z,36.01
2023-05-14T07:18:00.906Z,36.78
2023-05-14T07:20:34.491Z,37.51
2023-05-14T07:23:08.544Z,38.01
2023-05-14T07:25:42.023Z,38.03
2023-05-14T07:28:15.615Z,37.87
2023-05-14T07:30:49.243Z,37.53
2023-05-14T07:33:23.343Z,37.14
2023-05-14T07:35:57.415Z,36.38
2023-05-14T07:38:31.496Z,35.97
2023-05-14T07:41:05.377Z,35.58
2023-05-14T07:43:40.817Z,35.14
2023-05-14T07:46:15.849Z,34.22
2023-05-14T07:48:49.483Z,33.41
2023-05-14T07:51:23.439Z,32.88
2023-05-14T07:53:57.456Z,32.39
2023-05-14T07:56:31.409Z,32.03
2023-05-14T07:59:04.608Z,31.69
2023-05-14T08:01:39.460Z,31.87
2023-05-14T08:04:15.633Z,31.34
2023-05-14T08:06:49.411Z,31.10
2023-05-14T08:09:23.127Z,31.63
2023-05-14T08:11:56.575Z,32.14
2023-05-14T08:14:30.241Z,32.58
2023-05-14T08:17:03.925Z,32.88
2023-05-14T08:19:38.058Z,32.60
2023-05-14T08:22:11.717Z,32.27
2023-05-14T08:24:45.119Z,32.30
2023-05-14T08:27:18.935Z,32.47
2023-05-14T08:29:52.924Z,32.53
2023-05-14T08:32:26.806Z,32.30
2023-05-14T08:35:00.768Z,32.39
2023-05-14T08:37:34.625Z,32.73
2023-05-14T08:40:10.253Z,32.03
2023-05-14T08:42:45.333Z,30.97
2023-05-14T08:45:21.962Z,30.18
2023-05-14T08:47:56.463Z,29.58
2023-05-14T08:50:31.595Z,29.75
2023-05-14T08:53:05.360Z,29.78
2023-05-14T08:55:39.694Z,29.71
2023-05-14T08:58:13.590Z,30.42
2023-05-14T09:00:48.169Z,31.85
2023-05-14T09:03:22.166Z,33.47
2023-05-14T09:05:57.065Z,34.41
2023-05-14T09:08:33.767Z,34.79
2023-05-14T09:11:07.563Z,34.57
2023-05-14T09:13:42.230Z,34.30
2023-05-14T09:16:16.820Z,34.28
2023-05-14T09:18:51.041Z,34.15
2023-05-14T09:21:24.925Z,33.35
2023-05-14T09:24:00.542Z,32.41
2023-05-14T09:26:36.099Z,31.82
2023-05-14T09:29:09.697Z,31.19
2023-05-14T09:31:43.495Z,30.53
2023-05-14T09:34:28.152Z,29.71
2023-05-14T09:37:03.180Z,28.97
2023-05-14T09:39:38.776Z,28.61
2023-05-14T09:42:12.744Z,28.44
2023-05-14T09:44:47.718Z,28.47
2023-05-14T09:47:21.468Z,28.48
2023-05-14T09:49:55.890Z,28.36
2023-05-14T09:52:30.107Z,28.17
2023-05-14T09:55:04.476Z,28.12
2023-05-14T09:57:38.487Z,28.47
2023-05-14T10:00:14.470Z,29.37
2023-05-14T10:02:50.081Z,30.78
2023-05-14T10:05:25.131Z,32.78
2023-05-14T10:08:01.063Z,34.91
2023-05-14T10:10:37.291Z,35.94
2023-05-14T10:13:15.337Z,37.30
2023-05-14T10:15:58.682Z,38.63
2023-05-14T10:18:38.160Z,39.44
2023-05-14T10:21:12.616Z,39.51
2023-05-14T10:23:46.635Z,37.86
2023-05-14T10:26:22.410Z,35.70
2023-05-14T10:28:58.096Z,34.65
2023-05-14T10:31:54.030Z,33.92
2023-05-14T10:34:44.360Z,33.27
2023-05-14T10:37:20.089Z,33.82
2023-05-14T10:39:55.302Z,34.61
2023-05-14T10:42:35.695Z,34.85
2023-05-14T10:45:11.900Z,34.80
2023-05-14T10:47:47.205Z,35.29
2023-05-14T10:50:24.376Z,35.29
2023-05-14T10:52:59.382Z,34.27
2023-05-14T10:55:33.455Z,33.25
2023-05-14T10:58:08.090Z,32.82
2023-05-14T11:00:43.147Z,32.41
2023-05-14T11:03:17.486Z,32.01
2023-05-14T11:05:51.605Z,31.82
2023-05-14T11:08:29.406Z,31.81
2023-05-14T11:11:01.589Z,31.66
2023-05-14T11:13:35.790Z,31.68
2023-05-14T11:18:47.247Z,32.32
2023-05-14T11:21:22.500Z,31.88
2023-05-14T11:23:58.179Z,31.28
2023-05-14T11:26:33.236Z,31.28
2023-05-14T11:29:08.472Z,31.91
2023-05-14T11:31:42.425Z,31.68
2023-05-14T11:34:16.246Z,31.15
2023-05-14T11:36:49.761Z,30.87
2023-05-14T11:39:23.758Z,30.35
2023-05-14T11:41:57.431Z,29.72
2023-05-14T11:44:31.125Z,29.30
2023-05-14T11:47:05.422Z,29.20
2023-05-14T11:49:39.024Z,29.59
2023-05-14T11:52:14.629Z,30.20
2023-05-14T11:54:49.928Z,30.90
2023-05-14T11:57:24.235Z,31.14
2023-05-14T12:00:00.523Z,31.15
2023-05-14T12:02:35.241Z,31.12
2023-05-14T12:05:14.615Z,30.88
2023-05-14T12:07:49.655Z,30.80
2023-05-14T12:10:23.727Z,30.95
2023-05-14T12:12:57.460Z,31.40
2023-05-14T12:15:31.490Z,31.59
2023-05-14T12:18:22.917Z,31.87
2023-05-14T12:21:03.863Z,31.61
2023-05-14T12:23:40.269Z,31.03
2023-05-14T12:26:14.053Z,30.78
2023-05-14T12:28:51.154Z,30.65
2023-05-14T12:31:32.216Z,30.35
2023-05-14T12:34:06.273Z,29.97
2023-05-14T12:36:39.848Z,29.72
2023-05-14T12:39:13.873Z,29.43
2023-05-14T12:41:47.373Z,29.38
2023-05-14T12:44:22.993Z,30.25
2023-05-14T12:46:57.574Z,30.76
2023-05-14T12:49:31.472Z,31.05
2023-05-14T12:52:22.824Z,31.42
2023-05-14T12:54:59.628Z,32.27
2023-05-14T12:57:35.842Z,32.67
2023-05-14T13:00:14.184Z,32.08
2023-05-14T13:02:48.892Z,30.94
2023-05-14T13:05:23.470Z,30.11
2023-05-14T13:08:00.819Z,29.40
2023-05-14T13:10:35.061Z,28.90
2023-05-14T13:13:08.743Z,28.42
2023-05-14T13:15:42.252Z,28.02
2023-05-14T13:18:15.977Z,27.92
2023-05-14T13:20:49.545Z,27.79
2023-05-14T13:23:23.511Z,27.53
2023-05-14T13:25:57.335Z,27.46
2023-05-14T13:28:31.058Z,27.25
2023-05-14T13:31:12.625Z,27.12
2023-05-14T13:33:46.765Z,26.99
2023-05-14T13:36:20.620Z,26.85
2023-05-14T13:38:54.427Z,26.67
2023-05-14T13:41:30.342Z,26.34
2023-05-14T13:44:04.126Z,26.11
2023-05-14T13:46:38.047Z,25.90
2023-05-14T13:49:12.211Z,25.68
2023-05-14T13:51:46.160Z,25.54
2023-05-14T13:54:20.028Z,25.45
2023-05-14T13:56:53.850Z,25.50
2023-05-14T13:59:28.153Z,25.69
2023-05-14T14:02:02.172Z,25.91
2023-05-14T14:04:36.222Z,26.03
2023-05-14T14:07:09.946Z,26.05
2023-05-14T14:09:43.777Z,26.06
2023-05-14T14:12:17.675Z,26.19
2023-05-14T14:14:51.532Z,26.18
2023-05-14T14:17:25.160Z,26.13
2023-05-14T14:19:59.136Z,26.01
2023-05-14T14:22:33.990Z,25.89
2023-05-14T14:25:09.524Z,25.77
2023-05-14T14:27:43.616Z,25.59
2023-05-14T14:30:18.492Z,25.40
2023-05-14T14:32:53.029Z,25.40
2023-05-14T14:35:27.015Z,25.49
2023-05-14T14:38:00.713Z,25.50
2023-05-14T14:40:36.481Z,25.56
2023-05-14T14:43:10.248Z,25.58
2023-05-14T14:45:48.230Z,25.65
2023-05-14T14:48:34.536Z,25.68
2023-05-14T14:51:09.310Z,25.67
2023-05-14T14:53:43.211Z,25.60
2023-05-14T14:56:16.937Z,25.59
2023-05-14T14:58:50.799Z,25.60
2023-05-14T15:01:24.825Z,25.61
2023-05-14T15:03:59.178Z,25.69
2023-05-14T15:06:32.887Z,25.70
2023-05-14T15:09:08.172Z,25.66
2023-05-14T15:11:42.064Z,25.55
2023-05-14T15:14:15.612Z,25.42
2023-05-14T15:16:51.059Z,25.30
2023-05-14T15:19:25.186Z,25.18
2023-05-14T15:21:59.341Z,25.15
2023-05-14T15:24:33.127Z,25.08
2023-05-14T15:27:07.465Z,24.99
2023-05-14T15:29:41.800Z,24.94
2023-05-14T15:32:15.296Z,24.90
2023-05-14T15:34:49.207Z,24.80
2023-05-14T15:37:22.724Z,24.67
2023-05-14T15:39:56.555Z,24.58
2023-05-14T15:42:30.390Z,24.49
2023-05-14T15:45:03.934Z,24.35
2023-05-14T15:47:37.761Z,24.24
2023-05-14T15:50:13.039Z,24.20
2023-05-14T15:52:47.205Z,24.19
2023-05-14T15:55:21.061Z,24.20
2023-05-14T15:57:54.830Z,24.19
2023-05-14T16:00:28.761Z,24.14
2023-05-14T16:03:02.622Z,24.10
2023-05-14T16:05:36.905Z,24.02
2023-05-14T16:08:11.364Z,23.94
2023-05-14T16:10:45.065Z,23.88
2023-05-14T16:13:18.535Z,23.87
2023-05-14T16:15:52.313Z,23.86
2023-05-14T16:18:26.335Z,23.87
2023-05-14T16:20:59.692Z,23.92
2023-05-14T16:23:33.613Z,23.94
2023-05-14T16:26:08.853Z,23.93
2023-05-14T16:28:43.112Z,23.90
2023-05-14T16:31:17.082Z,23.87
2023-05-14T16:33:50.778Z,23.85
2023-05-14T16:36:24.607Z,23.82
2023-05-14T16:39:07.264Z,23.78
2023-05-14T16:41:41.817Z,23.76
2023-05-14T16:44:15.501Z,23.75
2023-05-14T16:46:49.377Z,23.74
2023-05-14T16:49:23.549Z,23.71
2023-05-14T16:51:57.419Z,23.66
2023-05-14T16:54:31.424Z,23.61
2023-05-14T16:57:06.317Z,23.56
2023-05-14T16:59:39.777Z,23.50
2023-05-14T17:02:14.314Z,23.45
2023-05-14T17:04:48.570Z,23.42
2023-05-14T17:07:23.428Z,23.40
2023-05-14T17:09:58.390Z,23.37
2023-05-14T17:12:32.167Z,23.34
2023-05-14T17:15:06.935Z,23.30
2023-05-14T17:17:40.844Z,23.25
2023-05-14T17:20:16.981Z,23.22
2023-05-14T17:22:51.241Z,23.15
2023-05-14T17:25:26.812Z,23.12
2023-05-14T17:28:00.942Z,23.10
2023-05-14T17:30:34.607Z,23.04
2023-05-14T17:33:08.745Z,23.00
2023-05-14T17:35:44.263Z,22.97
2023-05-14T17:38:17.993Z,22.94
2023-05-14T17:40:51.900Z,22.88
2023-05-14T17:43:25.652Z,22.81
2023-05-14T17:45:59.936Z,22.75
2023-05-14T17:48:33.908Z,22.67
2023-05-14T17:51:07.826Z,22.60
2023-05-14T17:53:42.028Z,22.55
2023-05-14T17:56:17.668Z,22.53
2023-05-14T17:58:52.760Z,22.50
2023-05-14T18:01:29.764Z,22.46
2023-05-14T18:04:06.204Z,22.42
2023-05-14T18:06:41.111Z,22.39
2023-05-14T18:09:17.020Z,22.33
2023-05-14T18:11:54.687Z,22.29
2023-05-14T18:14:30.000Z,22.24
2023-05-14T18:17:04.056Z,22.19
2023-05-14T18:19:37.808Z,22.17
2023-05-14T18:22:12.156Z,22.15
2023-05-14T18:24:47.052Z,22.11
2023-05-14T18:27:26.718Z,22.07
2023-05-14T18:30:01.012Z,22.02
2023-05-14T18:32:35.030Z,21.99
2023-05-14T18:35:09.882Z,21.96
2023-05-14T18:37:46.008Z,21.92
2023-05-14T18:40:21.116Z,21.89
2023-05-14T18:42:57.010Z,21.87
2023-05-14T18:45:32.775Z,21.85
2023-05-14T18:48:07.150Z,21.83
2023-05-14T18:50:43.247Z,21.81
2023-05-14T18:53:17.012Z,21.79
2023-05-14T18:55:51.289Z,21.76
2023-05-14T18:58:28.645Z,21.73
2023-05-14T19:01:03.549Z,21.68
2023-05-14T19:03:41.952Z,21.64
2023-05-14T19:06:16.162Z,21.59
2023-05-14T19:08:50.601Z,21.55
2023-05-14T19:11:25.001Z,21.49
2023-05-14T19:13:59.998Z,21.44
2023-05-14T19:16:34.813Z,21.37
2023-05-14T19:19:09.039Z,21.32
2023-05-14T19:21:45.844Z,21.26
2023-05-14T19:24:21.260Z,21.21
2023-05-14T19:26:56.050Z,21.15
2023-05-14T19:29:33.102Z,21.09
2023-05-14T19:32:08.063Z,21.01
2023-05-14T19:34:41.796Z,20.95
2023-05-14T19:37:19.444Z,20.90
2023-05-14T19:39:54.534Z,20.85
2023-05-14T19:42:28.925Z,20.80
2023-05-14T19:45:03.218Z,20.76
2023-05-14T19:47:37.846Z,20.71
2023-05-14T19:50:14.690Z,20.67
2023-05-14T19:52:48.884Z,20.63
2023-05-14T19:55:26.516Z,20.59
2023-05-14T19:58:01.750Z,20.55
2023-05-14T20:00:37.550Z,20.50
2023-05-14T20:03:11.751Z,20.46
2023-05-14T20:05:47.424Z,20.42
2023-05-14T20:08:22.045Z,20.39
2023-05-14T20:10:57.818Z,20.36
2023-05-14T20:13:33.097Z,20.32
2023-05-14T20:16:08.938Z,20.30
2023-05-14T20:18:43.467Z,20.27
2023-05-14T20:21:18.681Z,20.25
2023-05-14T20:23:53.401Z,20.21
2023-05-14T20:26:27.844Z,20.20
2023-05-14T20:29:02.260Z,20.19
2023-05-14T20:31:36.444Z,20.16
2023-05-14T20:34:10.603Z,20.15
2023-05-14T20:36:44.429Z,20.13
2023-05-14T20:39:19.929Z,20.11
2023-05-14T20:41:53.844Z,20.10
2023-05-14T20:44:27.607Z,20.09
2023-05-14T20:47:01.562Z,20.08
2023-05-14T20:49:35.876Z,20.08
2023-05-14T20:52:10.298Z,20.07
2023-05-14T20:54:44.313Z,20.07
2023-05-14T20:57:18.710Z,20.07
2023-05-14T20:59:52.474Z,20.07
2023-05-14T21:02:26.096Z,20.06
2023-05-14T21:04:59.992Z,20.06
2023-05-14T21:07:33.505Z,20.06
2023-05-14T21:10:07.948Z,20.06
2023-05-14T21:12:42.752Z,20.05
2023-05-14T21:15:17.530Z,20.05
2023-05-14T21:17:51.150Z,20.04
2023-05-14T21:20:25.022Z,20.04
2023-05-14T21:22:59.342Z,20.05
2023-05-14T21:25:33.179Z,20.05
2023-05-14T21:28:06.966Z,20.04
2023-05-14T21:30:40.975Z,20.04
2023-05-14T21:33:15.902Z,20.03
2023-05-14T21:35:49.205Z,20.04
2023-05-14T21:38:23.287Z,20.04
2023-05-14T21:40:56.786Z,20.03
2023-05-14T21:43:30.626Z,20.02
2023-05-14T21:46:04.398Z,20.01
2023-05-14T21:48:40.974Z,20.02
2023-05-14T21:51:15.039Z,20.01
2023-05-14T21:53:49.234Z,20.00
2023-05-14T21:56:23.020Z,19.99
2023-05-14T21:58:57.424Z,19.98
2023-05-14T22:01:32.541Z,19.95
2023-05-14T22:04:08.295Z,19.92
2023-05-14T22:06:42.313Z,19.88
2023-05-14T22:09:15.913Z,19.86
2023-05-14T22:11:49.356Z,19.84
2023-05-14T22:14:23.054Z,19.81
2023-05-14T22:16:57.003Z,19.78
2023-05-14T22:19:31.538Z,19.77
2023-05-14T22:22:05.679Z,19.76
2023-05-14T22:24:39.422Z,19.74
2023-05-14T22:27:12.958Z,19.71
2023-05-14T22:29:46.555Z,19.69
2023-05-14T22:32:20.222Z,19.66
2023-05-14T22:34:53.936Z,19.65
2023-05-14T22:37:27.512Z,19.63
2023-05-14T22:40:02.444Z,19.61
2023-05-14T22:42:36.286Z,19.58
2023-05-14T22:45:12.063Z,19.55
2023-05-14T22:47:45.699Z,19.52
2023-05-14T22:50:19.418Z,19.51
2023-05-14T22:52:53.278Z,19.48
2023-05-14T22:55:27.062Z,19.47
2023-05-14T22:58:01.115Z,19.47
2023-05-14T23:00:34.723Z,19.45
2023-05-14T23:03:08.703Z,19.43
2023-05-14T23:05:42.591Z,19.41
2023-05-14T23:08:16.262Z,19.37
2023-05-14T23:10:49.736Z,19.35
2023-05-14T23:13:23.941Z,19.32
2023-05-14T23:15:57.412Z,19.32
2023-05-14T23:18:31.766Z,19.30
2023-05-14T23:21:05.562Z,19.28
2023-05-14T23:23:39.239Z,19.27
2023-05-14T23:26:13.080Z,19.26
2023-05-14T23:28:47.619Z,19.24
2023-05-14T23:31:21.124Z,19.21
2023-05-14T23:33:54.648Z,19.19
2023-05-14T23:36:28.332Z,19.17
2023-05-14T23:39:02.107Z,19.15
2023-05-14T23:41:35.722Z,19.15
2023-05-14T23:44:09.893Z,19.14
2023-05-14T23:46:43.554Z,19.12
2023-05-14T23:49:17.729Z,19.11
2023-05-14T23:51:51.230Z,19.11
2023-05-14T23:54:24.596Z,19.10
2023-05-14T23:56:58.400Z,19.08
2023-05-14T23:59:32.288Z,19.06
